Time;durP1;ratioP1;P1;durP2;ratioP2;P2;SDS_P1;SDS_P2;PMS_P1;PMS_P2;Temp;Humidity;BMP_temperature;BMP_pressure;BME280_temperature;BME280_humidity;BME280_pressure;Samples;Min_cycle;Max_cycle;Signal;HPM_P1;HPM_P2
2020/12/13 00:00:50;;;;;;;;;;;;;;;-0.03;86.31;100527.00;1739774;81;20201;-78
2020/12/13 00:03:17;;;;;;;;;;;;;;;-0.05;86.28;100530.34;1685079;82;20224;-78
2020/12/13 00:05:46;;;;;;;;;;;;;;;-0.07;86.25;100535.07;1726788;81;20208;-78
2020/12/13 00:08:13;;;;;;;;;;;;;;;-0.10;86.26;100538.09;1737598;81;20315;-79
2020/12/13 00:10:41;;;;;;;;;;;;;;;-0.09;86.29;100541.14;1741176;81;20197;-81
2020/12/13 00:13:11;;;;;;;;;;;;;;;-0.09;86.20;100531.72;1717644;81;20232;-85
2020/12/13 00:15:39;;;;;;;;;;;;;;;-0.09;86.10;100535.75;1670628;84;20200;-84
2020/12/13 00:18:11;;;;;;;;;;;;;;;-0.10;85.90;100540.79;1705024;81;20200;-79
2020/12/13 00:20:42;;;;;;;;;;;;;;;-0.13;85.90;100533.09;1744333;81;20216;-86
2020/12/13 00:23:10;;;;;;;;;;;;;;;-0.13;85.87;100531.75;1719480;81;20224;-79
2020/12/13 00:25:38;;;;;;;;;;;;;;;-0.16;85.86;100538.81;1711239;81;20235;-80
2020/12/13 00:28:05;;;;;;;;;;;;;;;-0.20;85.75;100540.99;1710909;84;20510;-83
2020/12/13 00:30:33;;;;;;;;;;;;;;;-0.22;85.62;100538.14;1731601;81;20227;-81
2020/12/13 00:33:00;;;;;;;;;;;;;;;-0.23;85.73;100544.55;1750376;81;20181;-86
2020/12/13 00:35:28;;;;;;;;;;;;;;;-0.24;85.67;100539.67;1717000;82;20185;-86
2020/12/13 00:37:56;;;;;;;;;;;;;;;-0.24;85.62;100534.30;1713915;81;20200;-82
2020/12/13 00:40:23;;;;;;;;;;;;;;;-0.24;85.55;100542.86;1730960;82;20181;-81
2020/12/13 00:42:54;;;;;;;;;;;;;;;-0.26;85.35;100535.48;1717500;81;20523;-80
2020/12/13 00:45:21;;;;;;;;;;;;;;;-0.28;85.04;100535.63;1707075;82;20208;-82
2020/12/13 00:47:49;;;;;;;;;;;;;;;-0.31;85.10;100539.19;1735742;81;20257;-80
2020/12/13 00:50:17;;;;;;;;;;;;;;;-0.33;85.06;100543.38;1726432;81;20192;-76
2020/12/13 00:52:44;;;;;;;;;;;;;;;-0.35;85.06;100532.45;1723479;81;20183;-80
2020/12/13 00:55:12;;;;;;;;;;;;;;;-0.36;85.05;100532.14;1713875;82;20526;-82
2020/12/13 00:57:40;;;;;;;;;;;;;;;-0.37;84.92;100537.17;1715303;81;20298;-85
2020/12/13 01:00:08;;;;;;;;;;;;;;;-0.39;84.99;100536.02;1703295;82;20596;-85
2020/12/13 01:02:35;;;;;;;;;;;;;;;-0.39;84.87;100528.44;1721882;81;20196;-85
2020/12/13 01:05:03;;;;;;;;;;;;;;;-0.42;84.70;100521.56;1684776;84;20173;-78
2020/12/13 01:07:30;;;;;;;;;;;;;;;-0.42;84.77;100537.69;1710815;83;20191;-79
2020/12/13 01:09:58;;;;;;;;;;;;;;;-0.40;84.69;100532.98;1722377;81;20303;-77
2020/12/13 01:12:25;;;;;;;;;;;;;;;-0.42;84.57;100534.16;1715915;82;20505;-86
2020/12/13 01:14:54;;;;;;;;;;;;;;;-0.46;84.51;100530.98;1716734;81;20225;-84
2020/12/13 01:17:21;;;;;;;;;;;;;;;-0.51;84.32;100530.66;1720575;83;20186;-84
2020/12/13 01:19:50;;;;;;;;;;;;;;;-0.52;84.51;100538.87;1724793;81;20188;-86
2020/12/13 01:22:17;;;;;;;;;;;;;;;-0.55;84.14;100539.22;1736783;81;20196;-82
2020/12/13 01:24:45;;;;;;;;;;;;;;;-0.56;84.25;100540.24;1732823;81;20184;-76
2020/12/13 01:27:14;;;;;;;;;;;;;;;-0.57;83.91;100534.52;1710955;83;20224;-84
2020/12/13 01:29:41;;;;;;;;;;;;;;;-0.59;84.03;100542.77;1711082;81;20188;-75
2020/12/13 01:32:09;;;;;;;;;;;;;;;-0.59;84.08;100545.95;1712477;82;20232;-78
2020/12/13 01:34:36;;;;;;;;;;;;;;;-0.59;84.17;100555.36;1728696;82;20239;-77
2020/12/13 01:37:04;;;;;;;;;;;;;;;-0.62;83.99;100553.01;1715266;82;20193;-78
2020/12/13 01:39:32;;;;;;;;;;;;;;;-0.68;83.71;100545.95;1729354;81;20244;-85
2020/12/13 01:41:59;;;;;;;;;;;;;;;-0.69;83.92;100550.17;1734024;82;20189;-76
2020/12/13 01:44:33;;;;;;;;;;;;;;;-0.70;83.93;100552.02;1726881;82;20229;-76
2020/12/13 01:47:01;;;;;;;;;;;;;;;-0.72;84.01;100545.97;1720461;81;20221;-76
2020/12/13 01:49:45;;;;;;;;;;;;;;;-0.71;84.06;100544.94;1719644;83;20192;-76
2020/12/13 01:55:05;;;;;;;;;;;;;;;-0.74;83.79;100546.66;1685944;83;20192;-88
2020/12/13 01:57:37;;;;;;;;;;;;;;;-0.75;83.73;100549.48;1714866;81;20196;-78
2020/12/13 02:00:11;;;;;;;;;;;;;;;-0.76;83.76;100548.64;1711378;84;20215;-87
2020/12/13 02:02:47;;;;;;;;;;;;;;;-0.76;83.74;100539.77;1710305;81;20222;-82
2020/12/13 02:05:14;;;;;;;;;;;;;;;-0.78;83.45;100545.79;1710158;84;20184;-79
2020/12/13 02:07:42;;;;;;;;;;;;;;;-0.80;83.57;100548.66;1707658;81;20201;-81
2020/12/13 02:10:10;;;;;;;;;;;;;;;-0.83;83.40;100542.27;1690019;81;20192;-76
2020/12/13 02:12:38;;;;;;;;;;;;;;;-0.86;83.45;100546.63;1720775;81;20506;-74
2020/12/13 02:15:05;;;;;;;;;;;;;;;-0.89;83.52;100546.99;1719164;83;20196;-77
2020/12/13 02:17:36;;;;;;;;;;;;;;;-0.91;83.42;100531.52;1642354;85;20219;-75
2020/12/13 02:20:09;;;;;;;;;;;;;;;-0.93;83.55;100542.94;1677222;84;20167;-76
2020/12/13 02:22:44;;;;;;;;;;;;;;;-0.96;83.50;100543.27;1686622;83;20485;-76
2020/12/13 02:25:13;;;;;;;;;;;;;;;-0.96;83.61;100549.98;1687162;84;20540;-76
2020/12/13 02:27:41;;;;;;;;;;;;;;;-1.00;83.42;100555.37;1679292;83;20203;-76
2020/12/13 02:30:08;;;;;;;;;;;;;;;-1.03;83.28;100561.07;1666285;85;20191;-76
2020/12/13 02:32:37;;;;;;;;;;;;;;;-1.06;83.38;100556.03;1678801;83;20211;-77
2020/12/13 02:35:06;;;;;;;;;;;;;;;-1.12;83.52;100554.03;1700812;84;20185;-85
2020/12/13 02:37:34;;;;;;;;;;;;;;;-1.12;83.62;100558.05;1680508;84;20191;-88
2020/12/13 02:40:03;;;;;;;;;;;;;;;-1.14;83.48;100558.73;1680125;83;20183;-83
2020/12/13 02:42:34;;;;;;;;;;;;;;;-1.13;83.64;100564.42;1652401;85;20446;-82
2020/12/13 02:45:01;;;;;;;;;;;;;;;-1.12;83.73;100558.05;1688087;83;20249;-82
2020/12/13 02:47:28;;;;;;;;;;;;;;;-1.11;83.55;100566.95;1681560;82;20233;-78
2020/12/13 02:49:56;;;;;;;;;;;;;;;-1.14;83.38;100568.13;1679447;83;20351;-77
2020/12/13 02:52:24;;;;;;;;;;;;;;;-1.16;83.32;100559.90;1679776;84;20322;-78
2020/12/13 02:54:53;;;;;;;;;;;;;;;-1.20;83.23;100555.35;1692048;83;20267;-83
2020/12/13 02:57:21;;;;;;;;;;;;;;;-1.21;83.18;100563.59;1686457;84;20203;-84
2020/12/13 02:59:49;;;;;;;;;;;;;;;-1.28;83.12;100553.98;1709147;83;20494;-79
2020/12/13 03:02:16;;;;;;;;;;;;;;;-1.31;83.16;100559.19;1658360;84;20255;-77
2020/12/13 03:04:44;;;;;;;;;;;;;;;-1.33;83.22;100548.28;1692596;82;20215;-86
2020/12/13 03:07:12;;;;;;;;;;;;;;;-1.35;83.18;100554.32;1706539;83;20179;-78
2020/12/13 03:09:40;;;;;;;;;;;;;;;-1.36;83.20;100558.00;1680258;83;20679;-83
2020/12/13 03:12:08;;;;;;;;;;;;;;;-1.38;83.16;100552.80;1693895;84;20669;-86
2020/12/13 03:14:35;;;;;;;;;;;;;;;-1.41;82.87;100556.31;1657632;84;20447;-84
2020/12/13 03:17:03;;;;;;;;;;;;;;;-1.44;83.03;100566.02;1724837;81;20644;-78
2020/12/13 03:19:31;;;;;;;;;;;;;;;-1.47;83.04;100557.80;1721552;82;20236;-76
2020/12/13 03:21:59;;;;;;;;;;;;;;;-1.48;83.26;100556.14;1719829;81;20190;-77
2020/12/13 03:24:26;;;;;;;;;;;;;;;-1.49;82.96;100555.78;1710913;84;20199;-78
2020/12/13 03:26:54;;;;;;;;;;;;;;;-1.54;82.79;100558.13;1729536;81;20253;-83
2020/12/13 03:29:21;;;;;;;;;;;;;;;-1.57;82.93;100551.73;1664730;85;20197;-85
2020/12/13 03:31:49;;;;;;;;;;;;;;;-1.59;83.00;100555.58;1659673;83;20225;-84
2020/12/13 03:34:17;;;;;;;;;;;;;;;-1.65;83.04;100551.73;1711107;84;20243;-78
2020/12/13 03:36:45;;;;;;;;;;;;;;;-1.66;83.19;100546.02;1710542;81;20184;-86
2020/12/13 03:39:12;;;;;;;;;;;;;;;-1.64;83.23;100552.55;1714030;82;20252;-77
2020/12/13 03:41:40;;;;;;;;;;;;;;;-1.64;83.19;100556.08;1717972;81;20634;-77
2020/12/13 03:44:07;;;;;;;;;;;;;;;-1.64;83.16;100557.42;1718760;82;20215;-83
2020/12/13 03:46:35;;;;;;;;;;;;;;;-1.62;82.97;100550.04;1730418;80;20581;-78
2020/12/13 03:49:02;;;;;;;;;;;;;;;-1.63;82.92;100553.75;1730751;82;20228;-78
2020/12/13 03:51:30;;;;;;;;;;;;;;;-1.63;82.82;100556.92;1730420;82;20205;-78
2020/12/13 03:53:58;;;;;;;;;;;;;;;-1.64;82.63;100551.20;1738387;81;20269;-84
2020/12/13 03:56:26;;;;;;;;;;;;;;;-1.66;82.51;100558.59;1734009;82;20186;-79
2020/12/13 03:58:54;;;;;;;;;;;;;;;-1.69;82.46;100549.02;1715992;81;20196;-84
2020/12/13 04:01:22;;;;;;;;;;;;;;;-1.67;82.49;100548.87;1711125;84;20180;-79
2020/12/13 04:03:50;;;;;;;;;;;;;;;-1.68;82.29;100549.87;1711099;81;20249;-79
2020/12/13 04:06:18;;;;;;;;;;;;;;;-1.70;82.20;100558.59;1711078;84;20533;-79
2020/12/13 04:08:46;;;;;;;;;;;;;;;-1.72;82.13;100556.05;1710447;81;20255;-79
2020/12/13 04:11:14;;;;;;;;;;;;;;;-1.72;82.20;100560.07;1716512;83;20189;-86
2020/12/13 04:13:42;;;;;;;;;;;;;;;-1.71;82.12;100566.28;1729642;81;20229;-78
2020/12/13 04:16:13;;;;;;;;;;;;;;;-1.71;81.77;100561.77;1730978;83;20570;-89
2020/12/13 04:18:41;;;;;;;;;;;;;;;-1.72;81.71;100565.44;1723970;81;20212;-79
2020/12/13 04:21:08;;;;;;;;;;;;;;;-1.73;81.72;100562.92;1742039;82;20174;-91
2020/12/13 04:23:37;;;;;;;;;;;;;;;-1.77;81.54;100564.27;1711754;81;20211;-78
2020/12/13 04:26:05;;;;;;;;;;;;;;;-1.78;81.95;100565.26;1680421;85;20601;-86
2020/12/13 04:28:33;;;;;;;;;;;;;;;-1.80;81.53;100557.38;1679740;85;20786;-77
2020/12/13 04:31:00;;;;;;;;;;;;;;;-1.83;81.52;100564.91;1729652;83;20181;-77
2020/12/13 04:33:28;;;;;;;;;;;;;;;-1.88;81.87;100567.23;1715873;82;20491;-84
2020/12/13 04:35:56;;;;;;;;;;;;;;;-1.90;81.83;100562.53;1705548;83;20209;-83
2020/12/13 04:38:23;;;;;;;;;;;;;;;-1.89;81.93;100562.85;1706523;84;20181;-83
2020/12/13 04:40:52;;;;;;;;;;;;;;;-1.92;81.89;100563.52;1691391;83;20549;-84
2020/12/13 04:43:21;;;;;;;;;;;;;;;-1.90;81.86;100566.55;1679911;85;20584;-85
2020/12/13 04:45:48;;;;;;;;;;;;;;;-1.92;81.67;100572.59;1679557;83;20179;-76
2020/12/13 04:48:16;;;;;;;;;;;;;;;-1.92;81.85;100573.41;1652679;85;20224;-84
2020/12/13 04:50:43;;;;;;;;;;;;;;;-1.92;81.89;100561.86;1679831;83;20199;-74
2020/12/13 04:53:11;;;;;;;;;;;;;;;-1.95;81.75;100573.22;1652401;84;20192;-84
2020/12/13 04:55:53;;;;;;;;;;;;;;;-1.96;81.88;100572.05;1680416;83;20255;-83
2020/12/13 04:58:22;;;;;;;;;;;;;;;-1.96;81.82;100568.87;1680123;85;20187;-81
2020/12/13 05:00:58;;;;;;;;;;;;;;;-1.98;81.84;100564.18;1679944;83;20486;-82
2020/12/13 05:03:27;;;;;;;;;;;;;;;-1.99;82.01;100558.96;1679534;84;20187;-82
2020/12/13 05:05:58;;;;;;;;;;;;;;;-2.01;82.11;100563.16;1679682;83;20233;-75
2020/12/13 05:08:25;;;;;;;;;;;;;;;-2.04;82.09;100556.77;1692352;84;20264;-82
2020/12/13 05:10:54;;;;;;;;;;;;;;;-2.05;82.28;100571.69;1704328;84;20178;-77
2020/12/13 05:13:22;;;;;;;;;;;;;;;-2.06;82.35;100560.11;1719406;83;20164;-81
2020/12/13 05:15:49;;;;;;;;;;;;;;;-2.04;82.37;100570.17;1681097;85;20222;-76
2020/12/13 05:18:17;;;;;;;;;;;;;;;-2.02;82.46;100572.19;1696602;83;20205;-79
2020/12/13 05:20:46;;;;;;;;;;;;;;;-1.99;82.55;100576.39;1703715;84;20189;-75
2020/12/13 05:23:13;;;;;;;;;;;;;;;-1.98;82.55;100573.57;1713910;81;20216;-81
2020/12/13 05:25:41;;;;;;;;;;;;;;;-1.97;82.61;100574.39;1647387;85;20188;-82
2020/12/13 05:28:10;;;;;;;;;;;;;;;-1.96;82.58;100576.08;1658210;83;20189;-82
2020/12/13 05:30:44;;;;;;;;;;;;;;;-1.95;82.54;100571.06;1683211;84;20235;-79
2020/12/13 05:33:18;;;;;;;;;;;;;;;-1.95;82.56;100578.59;1716707;81;20187;-80
2020/12/13 05:35:42;;;;;;;;;;;;;;;-1.95;82.57;100574.56;1711167;84;20188;-80
2020/12/13 05:38:14;;;;;;;;;;;;;;;-1.95;82.50;100577.77;1724367;81;20213;-81
2020/12/13 05:40:42;;;;;;;;;;;;;;;-1.95;82.60;100582.61;1740354;82;20182;-81
2020/12/13 05:43:18;;;;;;;;;;;;;;;-1.94;82.63;100580.77;1701919;81;20224;-79
2020/12/13 05:53:43;;;;;;;;;;;;;;;-1.90;82.66;100588.86;1723291;81;20189;-79
2020/12/13 05:56:13;;;;;;;;;;;;;;;-1.90;82.67;100592.89;1715248;83;20177;-86
2020/12/13 05:58:40;;;;;;;;;;;;;;;-1.94;82.64;100582.97;1731173;83;20181;-78
2020/12/13 06:01:08;;;;;;;;;;;;;;;-1.92;82.63;100586.00;1675883;83;20532;-81
2020/12/13 06:03:37;;;;;;;;;;;;;;;-1.94;82.70;100587.48;1676317;84;20176;-76
2020/12/13 06:06:07;;;;;;;;;;;;;;;-1.96;82.59;100586.31;1686068;83;20180;-85
2020/12/13 06:08:55;;;;;;;;;;;;;;;-1.96;82.72;100586.31;1692290;84;20260;-77
2020/12/13 06:11:23;;;;;;;;;;;;;;;-1.96;82.70;100585.47;1690448;83;20423;-79
2020/12/13 06:13:54;;;;;;;;;;;;;;;-1.96;82.60;100589.00;1641491;84;20195;-86
2020/12/13 06:16:22;;;;;;;;;;;;;;;-1.96;82.67;100582.30;1683817;83;20191;-80
2020/12/13 06:18:49;;;;;;;;;;;;;;;-1.94;82.87;100583.45;1684052;84;20214;-81
2020/12/13 06:21:17;;;;;;;;;;;;;;;-1.92;82.87;100584.13;1682599;83;20227;-78
2020/12/13 06:23:46;;;;;;;;;;;;;;;-1.93;82.70;100582.47;1666192;84;20210;-83
2020/12/13 06:26:14;;;;;;;;;;;;;;;-1.92;82.67;100587.34;1683252;83;20183;-78
2020/12/13 06:28:42;;;;;;;;;;;;;;;-1.90;82.61;100573.27;1674367;86;20188;-86
2020/12/13 06:31:09;;;;;;;;;;;;;;;-1.90;82.44;100573.27;1645111;85;20180;-84
2020/12/13 06:33:41;;;;;;;;;;;;;;;-1.94;82.29;100562.84;1656152;84;20229;-78
2020/12/13 06:36:09;;;;;;;;;;;;;;;-1.95;82.46;100567.86;1720690;81;20185;-80
2020/12/13 06:38:38;;;;;;;;;;;;;;;-1.96;82.50;100575.59;1726313;83;20183;-82
2020/12/13 06:41:13;;;;;;;;;;;;;;;-1.95;82.51;100578.59;1711045;84;20247;-82
2020/12/13 06:43:56;;;;;;;;;;;;;;;-1.94;82.50;100581.62;1718181;82;20179;-86
2020/12/13 06:46:26;;;;;;;;;;;;;;;-1.94;82.50;100586.98;1718273;81;20641;-80
2020/12/13 06:48:54;;;;;;;;;;;;;;;-1.93;82.69;100582.47;1711157;81;20479;-79
2020/12/13 06:51:27;;;;;;;;;;;;;;;-1.92;82.55;100580.63;1660947;85;20520;-79
2020/12/13 06:53:55;;;;;;;;;;;;;;;-1.93;82.53;100575.77;1669859;84;20185;-85
2020/12/13 06:56:23;;;;;;;;;;;;;;;-1.94;82.31;100577.59;1707042;84;20253;-86
2020/12/13 06:58:55;;;;;;;;;;;;;;;-1.94;82.34;100583.45;1686540;83;20595;-80
2020/12/13 07:01:26;;;;;;;;;;;;;;;-1.94;82.38;100588.33;1679591;85;20534;-80
2020/12/13 07:03:54;;;;;;;;;;;;;;;-1.97;82.43;100585.96;1698142;83;20214;-85
2020/12/13 07:06:25;;;;;;;;;;;;;;;-1.96;82.38;100586.80;1707423;84;20196;-86
2020/12/13 07:08:55;;;;;;;;;;;;;;;-1.97;82.39;100589.98;1685064;83;20184;-80
2020/12/13 07:11:23;;;;;;;;;;;;;;;-1.97;82.52;100577.91;1689812;82;20193;-79
2020/12/13 07:14:06;;;;;;;;;;;;;;;-1.96;82.63;100574.25;1693506;83;20212;-86
2020/12/13 07:19:06;;;;;;;;;;;;;;;-1.93;82.47;100570.40;1680271;83;20555;-80
2020/12/13 07:21:35;;;;;;;;;;;;;;;-1.95;82.37;100571.88;1699272;84;20209;-89
2020/12/13 07:24:03;;;;;;;;;;;;;;;-1.96;82.42;100578.27;1695162;83;20517;-82
2020/12/13 07:26:32;;;;;;;;;;;;;;;-1.95;82.65;100576.44;1647309;85;20196;-82
2020/12/13 07:29:02;;;;;;;;;;;;;;;-1.94;82.64;100565.53;1676317;83;20510;-79
2020/12/13 07:31:35;;;;;;;;;;;;;;;-1.93;82.53;100569.06;1703974;84;20239;-80
2020/12/13 07:34:00;;;;;;;;;;;;;;;-1.92;82.63;100569.37;1703304;81;20217;-84
2020/12/13 07:36:28;;;;;;;;;;;;;;;-1.89;82.67;100570.90;1676359;83;20219;-80
2020/12/13 07:38:56;;;;;;;;;;;;;;;-1.86;82.68;100573.27;1674374;85;20191;-79
2020/12/13 07:41:25;;;;;;;;;;;;;;;-1.85;82.58;100569.10;1673948;83;20179;-79
2020/12/13 07:43:59;;;;;;;;;;;;;;;-1.84;82.45;100575.28;1679519;84;20206;-80
2020/12/13 07:46:29;;;;;;;;;;;;;;;-1.86;82.46;100572.77;1681132;83;20187;-89
2020/12/13 07:49:06;;;;;;;;;;;;;;;-1.87;82.39;100573.77;1696854;84;20173;-85
2020/12/13 07:51:39;;;;;;;;;;;;;;;-1.85;82.63;100573.63;1682839;84;20225;-80
2020/12/13 07:54:20;;;;;;;;;;;;;;;-1.85;82.51;100571.78;1674321;86;20216;-81
2020/12/13 07:56:49;;;;;;;;;;;;;;;-1.83;82.48;100570.27;1687704;83;20224;-81
2020/12/13 07:59:25;;;;;;;;;;;;;;;-1.83;82.44;100571.61;1711417;83;20579;-82
2020/12/13 08:01:54;;;;;;;;;;;;;;;-1.80;82.54;100590.07;1711496;81;20200;-76
2020/12/13 08:04:31;;;;;;;;;;;;;;;-1.82;82.55;100580.01;1719789;82;20188;-81
2020/12/13 08:07:00;;;;;;;;;;;;;;;-1.84;82.25;100577.47;1711674;81;20204;-83
2020/12/13 08:09:27;;;;;;;;;;;;;;;-1.81;82.29;100585.70;1711031;84;20231;-78
2020/12/13 08:11:55;;;;;;;;;;;;;;;-1.81;82.28;100580.33;1691499;83;20180;-83
2020/12/13 08:14:23;;;;;;;;;;;;;;;-1.80;82.32;100572.63;1722845;83;20196;-84
2020/12/13 08:16:53;;;;;;;;;;;;;;;-1.79;82.38;100580.51;1711185;81;20546;-80
2020/12/13 08:19:34;;;;;;;;;;;;;;;-1.78;82.22;100577.33;1711305;84;20184;-80
2020/12/13 08:22:09;;;;;;;;;;;;;;;-1.74;82.38;100585.38;1707999;81;20505;-79
2020/12/13 08:24:37;;;;;;;;;;;;;;;-1.69;82.30;100577.69;1711367;83;20494;-79
2020/12/13 08:27:04;;;;;;;;;;;;;;;-1.68;82.35;100576.70;1685245;81;20446;-84
2020/12/13 08:29:32;;;;;;;;;;;;;;;-1.67;82.23;100583.76;1726511;81;20183;-85
2020/12/13 08:32:00;;;;;;;;;;;;;;;-1.66;82.32;100577.37;1726044;82;20263;-84
2020/12/13 08:34:30;;;;;;;;;;;;;;;-1.65;82.19;100573.70;1725422;81;20185;-81
2020/12/13 08:37:02;;;;;;;;;;;;;;;-1.70;82.07;100574.69;1695423;83;20331;-78
2020/12/13 08:39:34;;;;;;;;;;;;;;;-1.72;82.32;100572.14;1714484;81;20200;-78
2020/12/13 08:42:06;;;;;;;;;;;;;;;-1.71;82.16;100575.67;1721670;81;20248;-82
2020/12/13 08:44:43;;;;;;;;;;;;;;;-1.74;82.00;100582.70;1694298;81;20192;-84
2020/12/13 08:47:12;;;;;;;;;;;;;;;-1.75;82.18;100575.67;1721293;82;20181;-83
2020/12/13 08:49:42;;;;;;;;;;;;;;;-1.74;82.18;100581.36;1701837;82;20178;-79
2020/12/13 08:52:21;;;;;;;;;;;;;;;-1.73;82.27;100584.39;1713860;81;20184;-81
2020/12/13 08:54:53;;;;;;;;;;;;;;;-1.74;82.30;100580.86;1724490;81;20381;-79
2020/12/13 08:57:33;;;;;;;;;;;;;;;-1.74;82.23;100573.31;1728796;81;20139;-82
2020/12/13 09:00:06;;;;;;;;;;;;;;;-1.76;82.31;100563.25;1724619;81;20172;-77
2020/12/13 09:02:38;;;;;;;;;;;;;;;-1.77;82.44;100560.24;1716201;81;20216;-80
2020/12/13 09:05:07;;;;;;;;;;;;;;;-1.79;82.38;100552.34;1710793;81;20180;-79
2020/12/13 09:07:35;;;;;;;;;;;;;;;-1.79;82.57;100547.47;1710611;83;20244;-80
2020/12/13 09:10:13;;;;;;;;;;;;;;;-1.82;82.51;100551.31;1712012;81;20196;-77
2020/12/13 09:12:41;;;;;;;;;;;;;;;-1.86;82.36;100542.41;1710758;83;20184;-77
2020/12/13 09:15:17;;;;;;;;;;;;;;;-1.90;82.44;100555.83;1725381;81;20264;-77
2020/12/13 09:17:55;;;;;;;;;;;;;;;-1.91;82.54;100546.93;1711104;82;20508;-82
2020/12/13 09:20:25;;;;;;;;;;;;;;;-1.89;82.58;100541.39;1714049;81;20239;-76
2020/12/13 09:23:10;;;;;;;;;;;;;;;-1.87;82.70;100550.14;1707389;82;20204;-78
2020/12/13 09:25:43;;;;;;;;;;;;;;;-1.87;82.71;100530.03;1724768;81;20184;-79
2020/12/13 09:28:11;;;;;;;;;;;;;;;-1.88;82.64;100541.75;1713227;82;20188;-76
2020/12/13 09:30:39;;;;;;;;;;;;;;;-1.88;82.57;100536.38;1719648;81;20894;-77
2020/12/13 09:33:08;;;;;;;;;;;;;;;-1.88;82.80;100543.09;1722533;82;20270;-82
2020/12/13 09:35:36;;;;;;;;;;;;;;;-1.87;82.59;100546.13;1711695;82;20196;-80
2020/12/13 09:38:08;;;;;;;;;;;;;;;-1.90;82.66;100546.44;1710215;81;20187;-80
2020/12/13 09:40:37;;;;;;;;;;;;;;;-1.89;82.82;100545.41;1736396;81;20186;-82
2020/12/13 09:43:04;;;;;;;;;;;;;;;-1.89;82.81;100550.28;1710487;81;20184;-79
2020/12/13 09:45:32;;;;;;;;;;;;;;;-1.93;82.55;100540.89;1719724;81;20205;-80
2020/12/13 09:48:01;;;;;;;;;;;;;;;-1.95;82.66;100534.86;1709945;81;20208;-78
2020/12/13 09:50:29;;;;;;;;;;;;;;;-1.95;82.75;100537.02;1713198;81;20223;-77
2020/12/13 09:52:57;;;;;;;;;;;;;;;-1.95;82.63;100542.91;1714710;81;20231;-76
2020/12/13 09:55:25;;;;;;;;;;;;;;;-1.96;82.71;100539.38;1717738;81;20208;-84
2020/12/13 09:57:53;;;;;;;;;;;;;;;-1.95;82.64;100535.67;1717550;81;20562;-84
2020/12/13 10:00:21;;;;;;;;;;;;;;;-1.95;82.69;100524.13;1710925;81;20526;-86
2020/12/13 10:02:48;;;;;;;;;;;;;;;-1.94;82.74;100523.95;1720733;81;20247;-84
2020/12/13 10:05:28;;;;;;;;;;;;;;;-1.93;82.83;100524.80;1720924;82;20276;-83
2020/12/13 10:10:39;;;;;;;;;;;;;;;-1.90;83.04;100521.80;1725904;81;20233;-84
2020/12/13 10:13:07;;;;;;;;;;;;;;;-1.87;82.85;100527.34;1723252;81;20706;-87
2020/12/13 10:15:36;;;;;;;;;;;;;;;-1.86;82.87;100524.48;1712598;82;20192;-83
2020/12/13 10:18:05;;;;;;;;;;;;;;;-1.84;82.73;100525.66;1713179;81;20509;-80
2020/12/13 10:20:41;;;;;;;;;;;;;;;-1.84;82.82;100521.63;1711738;81;20192;-80
2020/12/13 10:23:09;;;;;;;;;;;;;;;-1.82;82.76;100521.80;1734019;81;20237;-82
2020/12/13 10:25:37;;;;;;;;;;;;;;;-1.81;82.78;100515.95;1726421;81;20512;-84
2020/12/13 10:28:04;;;;;;;;;;;;;;;-1.83;82.62;100513.93;1722674;83;20181;-83
2020/12/13 10:30:32;;;;;;;;;;;;;;;-1.84;82.69;100513.58;1713729;81;20510;-85
2020/12/13 10:33:00;;;;;;;;;;;;;;;-1.86;82.76;100515.59;1710978;83;20188;-81
2020/12/13 10:35:28;;;;;;;;;;;;;;;-1.83;82.95;100507.22;1694073;82;20213;-78
2020/12/13 10:37:56;;;;;;;;;;;;;;;-1.81;82.74;100506.55;1719519;82;20220;-76
2020/12/13 10:40:25;;;;;;;;;;;;;;;-1.80;82.69;100497.52;1714005;81;20323;-77
2020/12/13 10:42:53;;;;;;;;;;;;;;;-1.79;82.72;100500.02;1720657;82;20185;-84
2020/12/13 10:45:21;;;;;;;;;;;;;;;-1.80;82.76;100498.36;1724097;81;20177;-79
2020/12/13 10:47:49;;;;;;;;;;;;;;;-1.81;82.84;100501.19;1725306;82;20188;-82
2020/12/13 10:50:18;;;;;;;;;;;;;;;-1.82;82.77;100491.48;1718422;81;20217;-84
2020/12/13 10:52:46;;;;;;;;;;;;;;;-1.83;82.95;100493.31;1672039;84;20592;-84
2020/12/13 10:55:16;;;;;;;;;;;;;;;-1.81;83.16;100490.45;1718243;81;20196;-81
2020/12/13 10:57:44;;;;;;;;;;;;;;;-1.80;83.15;100479.58;1716589;83;20200;-80
2020/12/13 11:00:12;;;;;;;;;;;;;;;-1.78;83.02;100487.45;1720705;82;20627;-80
2020/12/13 11:02:40;;;;;;;;;;;;;;;-1.77;82.99;100490.48;1710845;81;20188;-83
2020/12/13 11:05:08;;;;;;;;;;;;;;;-1.76;83.21;100488.13;1737529;82;20277;-82
2020/12/13 11:07:36;;;;;;;;;;;;;;;-1.74;83.26;100484.77;1723176;81;20251;-79
2020/12/13 11:10:03;;;;;;;;;;;;;;;-1.73;83.17;100483.78;1735073;81;20498;-81
2020/12/13 11:12:31;;;;;;;;;;;;;;;-1.72;83.23;100492.98;1710309;81;20598;-84
2020/12/13 11:14:58;;;;;;;;;;;;;;;-1.71;83.05;100487.13;1710933;83;20486;-83
2020/12/13 11:17:26;;;;;;;;;;;;;;;-1.71;83.07;100485.79;1712470;81;20231;-79
2020/12/13 11:19:54;;;;;;;;;;;;;;;-1.70;82.95;100476.75;1713615;82;20463;-85
2020/12/13 11:22:22;;;;;;;;;;;;;;;-1.75;82.99;100473.22;1699595;82;20192;-86
2020/12/13 11:24:49;;;;;;;;;;;;;;;-1.74;83.16;100484.27;1719098;82;20229;-84
2020/12/13 11:27:17;;;;;;;;;;;;;;;-1.73;83.20;100482.44;1703378;81;20505;-83
2020/12/13 11:29:45;;;;;;;;;;;;;;;-1.71;83.13;100479.08;1715331;82;20307;-82
2020/12/13 11:32:12;;;;;;;;;;;;;;;-1.70;83.20;100476.25;1729883;81;20208;-80
2020/12/13 11:34:40;;;;;;;;;;;;;;;-1.69;83.28;100481.09;1714928;82;20274;-79
2020/12/13 11:37:26;;;;;;;;;;;;;;;-1.68;83.13;100480.09;1710033;81;20213;-77
2020/12/13 11:39:54;;;;;;;;;;;;;;;-1.68;83.16;100490.34;1721290;82;20197;-76
2020/12/13 11:42:22;;;;;;;;;;;;;;;-1.71;83.15;100481.77;1726814;82;20485;-78
2020/12/13 11:44:50;;;;;;;;;;;;;;;-1.72;83.10;100482.26;1730988;81;20219;-79
2020/12/13 11:47:17;;;;;;;;;;;;;;;-1.72;83.06;100478.23;1722444;81;20184;-81
2020/12/13 11:49:45;;;;;;;;;;;;;;;-1.71;83.06;100480.42;1717859;81;20192;-78
2020/12/13 11:52:12;;;;;;;;;;;;;;;-1.72;82.95;100468.03;1699428;82;20446;-77
2020/12/13 11:54:40;;;;;;;;;;;;;;;-1.74;83.04;100469.52;1718602;81;20192;-78
2020/12/13 11:57:08;;;;;;;;;;;;;;;-1.75;82.94;100472.38;1729987;81;20421;-78
2020/12/13 11:59:35;;;;;;;;;;;;;;;-1.72;82.98;100480.10;1720383;81;20661;-79
2020/12/13 12:02:03;;;;;;;;;;;;;;;-1.75;82.86;100470.53;1727751;82;20245;-77
2020/12/13 12:04:31;;;;;;;;;;;;;;;-1.78;82.93;100472.70;1714468;81;20204;-81
2020/12/13 12:07:01;;;;;;;;;;;;;;;-1.79;83.00;100477.72;1721397;82;20198;-80
2020/12/13 12:09:29;;;;;;;;;;;;;;;-1.80;82.95;100478.24;1712418;81;20196;-77
2020/12/13 12:11:57;;;;;;;;;;;;;;;-1.80;83.00;100481.42;1723104;81;20192;-81
2020/12/13 12:14:24;;;;;;;;;;;;;;;-1.80;82.94;100486.78;1717878;81;20185;-92
2020/12/13 12:16:56;;;;;;;;;;;;;;;-1.80;83.18;100487.63;1721656;81;20455;-80
2020/12/13 12:19:25;;;;;;;;;;;;;;;-1.76;83.24;100497.52;1718450;81;20180;-83
2020/12/13 12:21:55;;;;;;;;;;;;;;;-1.73;83.06;100493.16;1717702;81;20522;-79
2020/12/13 12:24:23;;;;;;;;;;;;;;;-1.74;82.93;100502.20;1720843;82;20244;-86
2020/12/13 12:26:54;;;;;;;;;;;;;;;-1.74;83.00;100492.81;1722260;81;20478;-82
2020/12/13 12:29:22;;;;;;;;;;;;;;;-1.76;82.69;100496.17;1722558;82;20189;-86
2020/12/13 12:31:52;;;;;;;;;;;;;;;-1.78;82.88;100500.87;1717892;81;20223;-78
2020/12/13 12:34:20;;;;;;;;;;;;;;;-1.79;82.88;100495.15;1716604;81;20580;-86
2020/12/13 12:36:48;;;;;;;;;;;;;;;-1.79;82.92;100494.66;1710576;81;20560;-90
2020/12/13 12:39:17;;;;;;;;;;;;;;;-1.78;82.86;100495.00;1721590;81;20187;-81
2020/12/13 12:41:45;;;;;;;;;;;;;;;-1.79;82.97;100497.34;1719093;81;20184;-84
2020/12/13 12:44:13;;;;;;;;;;;;;;;-1.80;82.81;100490.81;1719530;81;20264;-80
2020/12/13 12:46:41;;;;;;;;;;;;;;;-1.81;82.95;100493.14;1721028;81;20250;-82
2020/12/13 12:49:09;;;;;;;;;;;;;;;-1.81;82.95;100495.83;1683251;84;20211;-86
2020/12/13 12:51:37;;;;;;;;;;;;;;;-1.83;82.95;100505.88;1683589;83;20260;-77
2020/12/13 12:54:05;;;;;;;;;;;;;;;-1.81;83.09;100506.06;1684842;84;20188;-86
2020/12/13 12:56:34;;;;;;;;;;;;;;;-1.79;83.12;100508.56;1680402;83;20190;-87
2020/12/13 12:59:09;;;;;;;;;;;;;;;-1.80;82.95;100504.22;1685131;84;20180;-85
2020/12/13 13:01:43;;;;;;;;;;;;;;;-1.80;82.84;100501.54;1721330;81;20198;-86